sensor_id;sensor_type;location;lat;lon;timestamp;P1;durP1;ratioP1;P2;durP2;ratioP2
11962;SDS011;62678;52.130;5.584;2023-03-14T00:01:07;13.82;;;3.80;;
11962;SDS011;62678;52.130;5.584;2023-03-14T00:03:35;12.70;;;3.50;;
11962;SDS011;62678;52.130;5.584;2023-03-14T00:06:02;10.43;;;3.67;;
11962;SDS011;62678;52.130;5.584;2023-03-14T00:08:30;10.02;;;3.25;;
11962;SDS011;62678;52.130;5.584;2023-03-14T00:10:57;16.25;;;4.35;;
11962;SDS011;62678;52.130;5.584;2023-03-14T00:13:25;17.10;;;4.13;;
11962;SDS011;62678;52.130;5.584;2023-03-14T00:15:52;14.05;;;3.88;;
11962;SDS011;62678;52.130;5.584;2023-03-14T00:18:19;19.92;;;3.92;;
11962;SDS011;62678;52.130;5.584;2023-03-14T00:20:47;15.32;;;3.58;;
11962;SDS011;62678;52.130;5.584;2023-03-14T00:23:14;15.07;;;3.70;;
11962;SDS011;62678;52.130;5.584;2023-03-14T00:25:41;12.45;;;3.95;;
11962;SDS011;62678;52.130;5.584;2023-03-14T00:28:08;16.05;;;4.03;;
11962;SDS011;62678;52.130;5.584;2023-03-14T00:30:38;15.95;;;3.75;;
11962;SDS011;62678;52.130;5.584;2023-03-14T00:33:05;17.20;;;3.47;;
11962;SDS011;62678;52.130;5.584;2023-03-14T00:35:32;13.93;;;3.92;;
11962;SDS011;62678;52.130;5.584;2023-03-14T00:37:59;18.75;;;3.17;;
11962;SDS011;62678;52.130;5.584;2023-03-14T00:40:26;14.45;;;3.03;;
11962;SDS011;62678;52.130;5.584;2023-03-14T00:42:53;16.33;;;2.97;;
11962;SDS011;62678;52.130;5.584;2023-03-14T00:45:19;14.57;;;2.63;;
11962;SDS011;62678;52.130;5.584;2023-03-14T00:47:48;14.80;;;3.30;;
11962;SDS011;62678;52.130;5.584;2023-03-14T00:50:15;16.27;;;2.88;;
11962;SDS011;62678;52.130;5.584;2023-03-14T00:52:42;14.35;;;3.17;;
11962;SDS011;62678;52.130;5.584;2023-03-14T00:55:09;16.08;;;3.40;;
11962;SDS011;62678;52.130;5.584;2023-03-14T00:57:35;12.00;;;2.95;;
11962;SDS011;62678;52.130;5.584;2023-03-14T01:00:03;11.95;;;2.85;;
11962;SDS011;62678;52.130;5.584;2023-03-14T01:02:33;15.40;;;2.78;;
11962;SDS011;62678;52.130;5.584;2023-03-14T01:05:01;15.52;;;2.60;;
11962;SDS011;62678;52.130;5.584;2023-03-14T01:07:28;12.98;;;2.50;;
11962;SDS011;62678;52.130;5.584;2023-03-14T01:09:58;11.55;;;2.65;;
11962;SDS011;62678;52.130;5.584;2023-03-14T01:12:25;12.90;;;2.47;;
11962;SDS011;62678;52.130;5.584;2023-03-14T01:14:53;10.20;;;2.40;;
11962;SDS011;62678;52.130;5.584;2023-03-14T01:17:20;10.20;;;2.00;;
11962;SDS011;62678;52.130;5.584;2023-03-14T01:19:47;13.30;;;2.50;;
11962;SDS011;62678;52.130;5.584;2023-03-14T01:22:16;9.85;;;2.22;;
11962;SDS011;62678;52.130;5.584;2023-03-14T01:24:42;10.95;;;2.53;;
11962;SDS011;62678;52.130;5.584;2023-03-14T01:27:09;8.50;;;2.65;;
11962;SDS011;62678;52.130;5.584;2023-03-14T01:29:36;12.68;;;3.10;;
11962;SDS011;62678;52.130;5.584;2023-03-14T01:32:03;14.75;;;2.38;;
11962;SDS011;62678;52.130;5.584;2023-03-14T01:34:31;12.57;;;2.67;;
11962;SDS011;62678;52.130;5.584;2023-03-14T01:36:57;16.20;;;3.10;;
11962;SDS011;62678;52.130;5.584;2023-03-14T01:39:26;16.20;;;2.70;;
11962;SDS011;62678;52.130;5.584;2023-03-14T01:41:53;10.05;;;2.42;;
11962;SDS011;62678;52.130;5.584;2023-03-14T01:44:20;12.85;;;2.58;;
11962;SDS011;62678;52.130;5.584;2023-03-14T01:46:47;16.95;;;3.20;;
11962;SDS011;62678;52.130;5.584;2023-03-14T01:49:19;11.60;;;2.75;;
11962;SDS011;62678;52.130;5.584;2023-03-14T01:51:50;9.57;;;2.33;;
11962;SDS011;62678;52.130;5.584;2023-03-14T01:54:21;10.43;;;2.20;;
11962;SDS011;62678;52.130;5.584;2023-03-14T01:56:56;13.77;;;2.60;;
11962;SDS011;62678;52.130;5.584;2023-03-14T01:59:27;11.25;;;2.60;;
11962;SDS011;62678;52.130;5.584;2023-03-14T02:01:56;11.45;;;2.15;;
11962;SDS011;62678;52.130;5.584;2023-03-14T02:04:25;13.95;;;2.70;;
11962;SDS011;62678;52.130;5.584;2023-03-14T02:06:56;9.82;;;2.45;;
11962;SDS011;62678;52.130;5.584;2023-03-14T02:09:28;12.35;;;2.10;;
11962;SDS011;62678;52.130;5.584;2023-03-14T02:11:56;10.93;;;2.40;;
11962;SDS011;62678;52.130;5.584;2023-03-14T02:14:28;12.90;;;2.67;;
11962;SDS011;62678;52.130;5.584;2023-03-14T02:16:57;13.25;;;2.90;;
11962;SDS011;62678;52.130;5.584;2023-03-14T02:19:28;10.77;;;2.60;;
11962;SDS011;62678;52.130;5.584;2023-03-14T02:22:10;12.13;;;2.50;;
11962;SDS011;62678;52.130;5.584;2023-03-14T02:24:43;12.75;;;2.40;;
11962;SDS011;62678;52.130;5.584;2023-03-14T02:27:16;7.82;;;2.25;;
11962;SDS011;62678;52.130;5.584;2023-03-14T02:29:46;7.60;;;1.98;;
11962;SDS011;62678;52.130;5.584;2023-03-14T02:32:18;12.13;;;2.72;;
11962;SDS011;62678;52.130;5.584;2023-03-14T02:34:47;11.43;;;2.60;;
11962;SDS011;62678;52.130;5.584;2023-03-14T02:37:18;10.80;;;2.88;;
11962;SDS011;62678;52.130;5.584;2023-03-14T02:39:48;11.10;;;3.58;;
11962;SDS011;62678;52.130;5.584;2023-03-14T02:42:17;15.82;;;3.95;;
11962;SDS011;62678;52.130;5.584;2023-03-14T02:44:48;9.80;;;3.75;;
11962;SDS011;62678;52.130;5.584;2023-03-14T02:47:17;9.75;;;4.28;;
11962;SDS011;62678;52.130;5.584;2023-03-14T02:49:47;16.70;;;4.75;;
11962;SDS011;62678;52.130;5.584;2023-03-14T02:52:14;15.35;;;4.40;;
11962;SDS011;62678;52.130;5.584;2023-03-14T02:54:41;10.85;;;4.03;;
11962;SDS011;62678;52.130;5.584;2023-03-14T02:57:08;13.38;;;4.35;;
11962;SDS011;62678;52.130;5.584;2023-03-14T02:59:36;13.50;;;4.22;;
11962;SDS011;62678;52.130;5.584;2023-03-14T03:02:03;12.38;;;4.15;;
11962;SDS011;62678;52.130;5.584;2023-03-14T03:04:30;12.88;;;3.92;;
11962;SDS011;62678;52.130;5.584;2023-03-14T03:06:57;11.60;;;4.00;;
11962;SDS011;62678;52.130;5.584;2023-03-14T03:09:24;13.90;;;4.20;;
11962;SDS011;62678;52.130;5.584;2023-03-14T03:11:51;11.60;;;4.85;;
11962;SDS011;62678;52.130;5.584;2023-03-14T03:14:18;12.05;;;3.58;;
11962;SDS011;62678;52.130;5.584;2023-03-14T03:16:46;16.05;;;3.72;;
11962;SDS011;62678;52.130;5.584;2023-03-14T03:19:13;14.70;;;3.72;;
11962;SDS011;62678;52.130;5.584;2023-03-14T03:21:41;6.28;;;3.30;;
11962;SDS011;62678;52.130;5.584;2023-03-14T03:24:08;14.38;;;3.50;;
11962;SDS011;62678;52.130;5.584;2023-03-14T03:26:35;11.77;;;3.20;;
11962;SDS011;62678;52.130;5.584;2023-03-14T03:29:02;14.52;;;3.45;;
11962;SDS011;62678;52.130;5.584;2023-03-14T03:31:29;9.15;;;2.92;;
11962;SDS011;62678;52.130;5.584;2023-03-14T03:33:58;12.63;;;3.45;;
11962;SDS011;62678;52.130;5.584;2023-03-14T03:36:25;14.77;;;2.95;;
11962;SDS011;62678;52.130;5.584;2023-03-14T03:38:53;14.07;;;3.75;;
11962;SDS011;62678;52.130;5.584;2023-03-14T03:41:20;13.57;;;3.33;;
11962;SDS011;62678;52.130;5.584;2023-03-14T03:43:47;12.07;;;3.03;;
11962;SDS011;62678;52.130;5.584;2023-03-14T03:46:14;11.02;;;3.15;;
11962;SDS011;62678;52.130;5.584;2023-03-14T03:48:41;14.85;;;3.25;;
11962;SDS011;62678;52.130;5.584;2023-03-14T03:51:12;12.15;;;3.22;;
11962;SDS011;62678;52.130;5.584;2023-03-14T03:53:40;10.50;;;3.38;;
11962;SDS011;62678;52.130;5.584;2023-03-14T03:56:08;17.67;;;3.55;;
11962;SDS011;62678;52.130;5.584;2023-03-14T03:58:36;10.57;;;3.33;;
11962;SDS011;62678;52.130;5.584;2023-03-14T04:01:04;14.95;;;3.63;;
11962;SDS011;62678;52.130;5.584;2023-03-14T04:03:31;11.55;;;3.30;;
11962;SDS011;62678;52.130;5.584;2023-03-14T04:05:59;13.45;;;3.40;;
11962;SDS011;62678;52.130;5.584;2023-03-14T04:08:27;15.73;;;3.63;;
11962;SDS011;62678;52.130;5.584;2023-03-14T04:10:56;12.32;;;2.75;;
11962;SDS011;62678;52.130;5.584;2023-03-14T04:13:23;9.82;;;2.92;;
11962;SDS011;62678;52.130;5.584;2023-03-14T04:15:50;10.95;;;3.15;;
11962;SDS011;62678;52.130;5.584;2023-03-14T04:18:18;9.90;;;2.97;;
11962;SDS011;62678;52.130;5.584;2023-03-14T04:20:45;17.60;;;3.17;;
11962;SDS011;62678;52.130;5.584;2023-03-14T04:23:16;11.68;;;2.58;;
11962;SDS011;62678;52.130;5.584;2023-03-14T04:25:44;12.13;;;3.13;;
11962;SDS011;62678;52.130;5.584;2023-03-14T04:28:11;16.83;;;3.28;;
11962;SDS011;62678;52.130;5.584;2023-03-14T04:30:38;13.27;;;3.08;;
11962;SDS011;62678;52.130;5.584;2023-03-14T04:33:05;13.95;;;3.17;;
11962;SDS011;62678;52.130;5.584;2023-03-14T04:35:33;8.98;;;2.72;;
11962;SDS011;62678;52.130;5.584;2023-03-14T04:38:00;10.93;;;3.10;;
11962;SDS011;62678;52.130;5.584;2023-03-14T04:40:28;11.00;;;3.08;;
11962;SDS011;62678;52.130;5.584;2023-03-14T04:42:56;10.30;;;3.03;;
11962;SDS011;62678;52.130;5.584;2023-03-14T04:45:23;14.02;;;3.13;;
11962;SDS011;62678;52.130;5.584;2023-03-14T04:47:50;13.60;;;2.92;;
11962;SDS011;62678;52.130;5.584;2023-03-14T04:50:17;13.43;;;4.10;;
11962;SDS011;62678;52.130;5.584;2023-03-14T04:52:44;12.15;;;3.10;;
11962;SDS011;62678;52.130;5.584;2023-03-14T04:55:11;11.85;;;3.00;;
11962;SDS011;62678;52.130;5.584;2023-03-14T04:57:38;16.42;;;3.60;;
11962;SDS011;62678;52.130;5.584;2023-03-14T05:00:07;9.77;;;2.92;;
11962;SDS011;62678;52.130;5.584;2023-03-14T05:02:35;16.75;;;3.40;;
11962;SDS011;62678;52.130;5.584;2023-03-14T05:05:02;9.90;;;3.13;;
11962;SDS011;62678;52.130;5.584;2023-03-14T05:07:29;12.50;;;3.53;;
11962;SDS011;62678;52.130;5.584;2023-03-14T05:09:56;9.52;;;3.05;;
11962;SDS011;62678;52.130;5.584;2023-03-14T05:12:23;11.82;;;3.10;;
11962;SDS011;62678;52.130;5.584;2023-03-14T05:14:50;13.55;;;2.90;;
11962;SDS011;62678;52.130;5.584;2023-03-14T05:17:19;9.07;;;2.58;;
11962;SDS011;62678;52.130;5.584;2023-03-14T05:19:46;12.95;;;3.13;;
11962;SDS011;62678;52.130;5.584;2023-03-14T05:22:13;11.00;;;2.95;;
11962;SDS011;62678;52.130;5.584;2023-03-14T05:24:40;9.00;;;2.90;;
11962;SDS011;62678;52.130;5.584;2023-03-14T05:27:07;12.40;;;3.25;;
11962;SDS011;62678;52.130;5.584;2023-03-14T05:29:34;8.15;;;3.30;;
11962;SDS011;62678;52.130;5.584;2023-03-14T05:32:01;10.73;;;3.70;;
11962;SDS011;62678;52.130;5.584;2023-03-14T05:34:29;13.52;;;3.80;;
11962;SDS011;62678;52.130;5.584;2023-03-14T05:36:56;11.00;;;4.22;;
11962;SDS011;62678;52.130;5.584;2023-03-14T05:39:27;12.05;;;3.92;;
11962;SDS011;62678;52.130;5.584;2023-03-14T05:41:53;12.98;;;4.43;;
11962;SDS011;62678;52.130;5.584;2023-03-14T05:44:21;14.88;;;4.72;;
11962;SDS011;62678;52.130;5.584;2023-03-14T05:46:48;9.38;;;4.40;;
11962;SDS011;62678;52.130;5.584;2023-03-14T05:49:15;14.57;;;4.32;;
11962;SDS011;62678;52.130;5.584;2023-03-14T05:51:44;9.35;;;4.28;;
11962;SDS011;62678;52.130;5.584;2023-03-14T05:54:11;13.30;;;4.70;;
11962;SDS011;62678;52.130;5.584;2023-03-14T05:56:38;15.90;;;4.82;;
11962;SDS011;62678;52.130;5.584;2023-03-14T05:59:05;17.95;;;5.18;;
11962;SDS011;62678;52.130;5.584;2023-03-14T06:01:34;12.23;;;5.05;;
11962;SDS011;62678;52.130;5.584;2023-03-14T06:04:01;14.68;;;5.95;;
11962;SDS011;62678;52.130;5.584;2023-03-14T06:06:28;13.52;;;5.63;;
11962;SDS011;62678;52.130;5.584;2023-03-14T06:08:56;11.75;;;5.72;;
11962;SDS011;62678;52.130;5.584;2023-03-14T06:11:23;13.75;;;5.85;;
11962;SDS011;62678;52.130;5.584;2023-03-14T06:13:50;12.77;;;5.88;;
11962;SDS011;62678;52.130;5.584;2023-03-14T06:16:17;13.35;;;5.70;;
11962;SDS011;62678;52.130;5.584;2023-03-14T06:18:44;11.70;;;6.20;;
11962;SDS011;62678;52.130;5.584;2023-03-14T06:21:14;12.57;;;6.57;;
11962;SDS011;62678;52.130;5.584;2023-03-14T06:23:40;17.83;;;6.30;;
11962;SDS011;62678;52.130;5.584;2023-03-14T06:26:09;13.48;;;6.63;;
11962;SDS011;62678;52.130;5.584;2023-03-14T06:28:36;15.50;;;6.47;;
11962;SDS011;62678;52.130;5.584;2023-03-14T06:31:04;15.02;;;6.57;;
11962;SDS011;62678;52.130;5.584;2023-03-14T06:33:31;11.90;;;6.03;;
11962;SDS011;62678;52.130;5.584;2023-03-14T06:35:58;11.63;;;5.55;;
11962;SDS011;62678;52.130;5.584;2023-03-14T06:38:25;12.55;;;6.13;;
11962;SDS011;62678;52.130;5.584;2023-03-14T06:40:52;9.77;;;6.28;;
11962;SDS011;62678;52.130;5.584;2023-03-14T06:43:21;12.40;;;6.82;;
11962;SDS011;62678;52.130;5.584;2023-03-14T06:45:48;18.27;;;7.82;;
11962;SDS011;62678;52.130;5.584;2023-03-14T06:48:15;11.80;;;6.97;;
11962;SDS011;62678;52.130;5.584;2023-03-14T06:50:43;15.15;;;7.30;;
11962;SDS011;62678;52.130;5.584;2023-03-14T06:53:10;16.80;;;8.10;;
11962;SDS011;62678;52.130;5.584;2023-03-14T06:55:37;16.45;;;8.73;;
11962;SDS011;62678;52.130;5.584;2023-03-14T06:58:04;19.15;;;8.43;;
11962;SDS011;62678;52.130;5.584;2023-03-14T07:00:34;13.80;;;7.40;;
11962;SDS011;62678;52.130;5.584;2023-03-14T07:03:01;7.32;;;5.38;;
11962;SDS011;62678;52.130;5.584;2023-03-14T07:05:29;5.68;;;2.60;;
11962;SDS011;62678;52.130;5.584;2023-03-14T07:07:56;4.18;;;2.03;;
11962;SDS011;62678;52.130;5.584;2023-03-14T07:10:23;4.32;;;1.83;;
11962;SDS011;62678;52.130;5.584;2023-03-14T07:12:50;3.70;;;1.70;;
11962;SDS011;62678;52.130;5.584;2023-03-14T07:15:17;5.38;;;1.33;;
11962;SDS011;62678;52.130;5.584;2023-03-14T07:17:46;3.20;;;1.50;;
11962;SDS011;62678;52.130;5.584;2023-03-14T07:20:13;8.80;;;3.97;;
11962;SDS011;62678;52.130;5.584;2023-03-14T07:22:40;17.70;;;8.82;;
11962;SDS011;62678;52.130;5.584;2023-03-14T07:25:07;10.43;;;5.10;;
11962;SDS011;62678;52.130;5.584;2023-03-14T07:27:37;4.45;;;2.88;;
11962;SDS011;62678;52.130;5.584;2023-03-14T07:30:04;12.32;;;7.15;;
11962;SDS011;62678;52.130;5.584;2023-03-14T07:32:32;13.02;;;8.13;;
11962;SDS011;62678;52.130;5.584;2023-03-14T07:35:00;6.60;;;3.50;;
11962;SDS011;62678;52.130;5.584;2023-03-14T07:37:28;8.63;;;2.70;;
11962;SDS011;62678;52.130;5.584;2023-03-14T07:39:54;2.90;;;1.80;;
11962;SDS011;62678;52.130;5.584;2023-03-14T07:42:21;5.10;;;2.78;;
11962;SDS011;62678;52.130;5.584;2023-03-14T07:44:48;4.63;;;1.88;;
11962;SDS011;62678;52.130;5.584;2023-03-14T07:47:15;4.90;;;3.38;;
11962;SDS011;62678;52.130;5.584;2023-03-14T07:49:42;3.40;;;2.67;;
11962;SDS011;62678;52.130;5.584;2023-03-14T07:52:11;2.70;;;2.17;;
11962;SDS011;62678;52.130;5.584;2023-03-14T07:54:38;3.90;;;2.40;;
11962;SDS011;62678;52.130;5.584;2023-03-14T07:57:04;5.50;;;1.70;;
11962;SDS011;62678;52.130;5.584;2023-03-14T07:59:31;4.35;;;2.20;;
11962;SDS011;62678;52.130;5.584;2023-03-14T08:01:58;4.45;;;2.10;;
11962;SDS011;62678;52.130;5.584;2023-03-14T08:04:25;2.92;;;1.50;;
11962;SDS011;62678;52.130;5.584;2023-03-14T08:06:52;4.65;;;2.40;;
11962;SDS011;62678;52.130;5.584;2023-03-14T08:09:21;5.45;;;2.55;;
11962;SDS011;62678;52.130;5.584;2023-03-14T08:11:48;7.47;;;1.60;;
11962;SDS011;62678;52.130;5.584;2023-03-14T08:14:15;9.88;;;1.55;;
11962;SDS011;62678;52.130;5.584;2023-03-14T08:16:43;9.23;;;1.42;;
11962;SDS011;62678;52.130;5.584;2023-03-14T08:19:10;7.10;;;1.20;;
11962;SDS011;62678;52.130;5.584;2023-03-14T08:21:38;8.00;;;1.02;;
11962;SDS011;62678;52.130;5.584;2023-03-14T08:24:05;7.47;;;1.27;;
11962;SDS011;62678;52.130;5.584;2023-03-14T08:26:33;10.20;;;1.20;;
11962;SDS011;62678;52.130;5.584;2023-03-14T08:29:01;8.90;;;1.20;;
11962;SDS011;62678;52.130;5.584;2023-03-14T08:31:30;7.75;;;1.35;;
11962;SDS011;62678;52.130;5.584;2023-03-14T08:33:58;10.05;;;1.20;;
11962;SDS011;62678;52.130;5.584;2023-03-14T08:36:25;5.75;;;0.90;;
11962;SDS011;62678;52.130;5.584;2023-03-14T08:38:52;5.05;;;0.95;;
11962;SDS011;62678;52.130;5.584;2023-03-14T08:41:19;7.72;;;1.60;;
11962;SDS011;62678;52.130;5.584;2023-03-14T08:43:48;8.80;;;1.75;;
11962;SDS011;62678;52.130;5.584;2023-03-14T08:46:15;7.90;;;0.80;;
11962;SDS011;62678;52.130;5.584;2023-03-14T08:48:42;5.43;;;1.30;;
11962;SDS011;62678;52.130;5.584;2023-03-14T08:51:11;5.40;;;1.27;;
11962;SDS011;62678;52.130;5.584;2023-03-14T08:53:40;2.83;;;0.73;;
11962;SDS011;62678;52.130;5.584;2023-03-14T08:56:07;8.18;;;0.85;;
11962;SDS011;62678;52.130;5.584;2023-03-14T08:58:36;8.20;;;1.33;;
11962;SDS011;62678;52.130;5.584;2023-03-14T09:01:04;2.67;;;0.82;;
11962;SDS011;62678;52.130;5.584;2023-03-14T09:03:32;3.58;;;0.82;;
11962;SDS011;62678;52.130;5.584;2023-03-14T09:06:01;5.15;;;0.70;;
11962;SDS011;62678;52.130;5.584;2023-03-14T09:08:29;4.22;;;0.68;;
11962;SDS011;62678;52.130;5.584;2023-03-14T09:10:56;2.53;;;0.73;;
11962;SDS011;62678;52.130;5.584;2023-03-14T09:13:23;3.78;;;0.90;;
11962;SDS011;62678;52.130;5.584;2023-03-14T09:15:50;4.35;;;0.80;;
11962;SDS011;62678;52.130;5.584;2023-03-14T09:18:19;4.95;;;1.00;;
11962;SDS011;62678;52.130;5.584;2023-03-14T09:20:46;9.30;;;1.00;;
11962;SDS011;62678;52.130;5.584;2023-03-14T09:23:14;7.82;;;1.98;;
11962;SDS011;62678;52.130;5.584;2023-03-14T09:25:42;5.20;;;1.67;;
11962;SDS011;62678;52.130;5.584;2023-03-14T09:28:08;8.15;;;1.70;;
11962;SDS011;62678;52.130;5.584;2023-03-14T09:30:35;9.32;;;1.45;;
11962;SDS011;62678;52.130;5.584;2023-03-14T09:33:02;8.63;;;1.90;;
11962;SDS011;62678;52.130;5.584;2023-03-14T09:35:32;11.98;;;2.83;;
11962;SDS011;62678;52.130;5.584;2023-03-14T09:37:59;11.55;;;1.83;;
11962;SDS011;62678;52.130;5.584;2023-03-14T09:40:27;11.80;;;1.95;;
11962;SDS011;62678;52.130;5.584;2023-03-14T09:42:58;12.00;;;2.15;;
11962;SDS011;62678;52.130;5.584;2023-03-14T09:45:25;15.40;;;2.10;;
11962;SDS011;62678;52.130;5.584;2023-03-14T09:47:54;17.45;;;2.30;;
11962;SDS011;62678;52.130;5.584;2023-03-14T09:50:23;17.90;;;2.20;;
11962;SDS011;62678;52.130;5.584;2023-03-14T09:52:52;14.35;;;2.85;;
11962;SDS011;62678;52.130;5.584;2023-03-14T09:55:22;13.38;;;2.50;;
11962;SDS011;62678;52.130;5.584;2023-03-14T09:57:50;16.02;;;2.35;;
11962;SDS011;62678;52.130;5.584;2023-03-14T10:00:23;16.73;;;2.63;;
11962;SDS011;62678;52.130;5.584;2023-03-14T10:02:54;17.30;;;2.72;;
11962;SDS011;62678;52.130;5.584;2023-03-14T10:05:23;15.85;;;2.55;;
11962;SDS011;62678;52.130;5.584;2023-03-14T10:07:54;17.77;;;3.10;;
11962;SDS011;62678;52.130;5.584;2023-03-14T10:10:21;17.75;;;3.10;;
11962;SDS011;62678;52.130;5.584;2023-03-14T10:12:55;16.85;;;3.05;;
11962;SDS011;62678;52.130;5.584;2023-03-14T10:15:24;19.92;;;3.78;;
11962;SDS011;62678;52.130;5.584;2023-03-14T10:17:53;14.43;;;2.55;;
11962;SDS011;62678;52.130;5.584;2023-03-14T10:20:28;20.40;;;2.80;;
11962;SDS011;62678;52.130;5.584;2023-03-14T10:23:00;16.75;;;2.85;;
11962;SDS011;62678;52.130;5.584;2023-03-14T10:25:29;20.38;;;2.70;;
11962;SDS011;62678;52.130;5.584;2023-03-14T10:27:57;17.58;;;2.30;;
11962;SDS011;62678;52.130;5.584;2023-03-14T10:30:33;16.58;;;2.60;;
11962;SDS011;62678;52.130;5.584;2023-03-14T10:33:09;19.30;;;2.78;;
11962;SDS011;62678;52.130;5.584;2023-03-14T10:35:38;16.50;;;3.15;;
11962;SDS011;62678;52.130;5.584;2023-03-14T10:38:12;22.02;;;3.42;;
11962;SDS011;62678;52.130;5.584;2023-03-14T10:40:41;19.92;;;3.15;;
11962;SDS011;62678;52.130;5.584;2023-03-14T10:43:15;20.52;;;3.25;;
11962;SDS011;62678;52.130;5.584;2023-03-14T10:45:45;19.63;;;2.60;;
11962;SDS011;62678;52.130;5.584;2023-03-14T10:48:23;26.88;;;3.42;;
11962;SDS011;62678;52.130;5.584;2023-03-14T10:50:56;24.52;;;3.60;;
11962;SDS011;62678;52.130;5.584;2023-03-14T10:53:25;19.42;;;3.08;;
11962;SDS011;62678;52.130;5.584;2023-03-14T10:55:52;26.05;;;3.67;;
11962;SDS011;62678;52.130;5.584;2023-03-14T10:58:22;21.95;;;3.72;;
11962;SDS011;62678;52.130;5.584;2023-03-14T11:00:57;19.55;;;2.63;;
11962;SDS011;62678;52.130;5.584;2023-03-14T11:03:28;24.08;;;3.08;;
11962;SDS011;62678;52.130;5.584;2023-03-14T11:05:59;26.60;;;4.03;;
11962;SDS011;62678;52.130;5.584;2023-03-14T11:08:34;18.20;;;2.65;;
11962;SDS011;62678;52.130;5.584;2023-03-14T11:11:10;18.20;;;3.20;;
11962;SDS011;62678;52.130;5.584;2023-03-14T11:13:46;24.30;;;3.60;;
11962;SDS011;62678;52.130;5.584;2023-03-14T11:16:26;23.05;;;3.22;;
11962;SDS011;62678;52.130;5.584;2023-03-14T11:19:03;21.65;;;2.95;;
11962;SDS011;62678;52.130;5.584;2023-03-14T11:21:43;22.25;;;3.20;;
11962;SDS011;62678;52.130;5.584;2023-03-14T11:24:31;20.05;;;2.97;;
11962;SDS011;62678;52.130;5.584;2023-03-14T11:27:06;20.05;;;3.25;;
11962;SDS011;62678;52.130;5.584;2023-03-14T11:29:41;18.88;;;2.95;;
11962;SDS011;62678;52.130;5.584;2023-03-14T11:32:17;16.45;;;3.08;;
11962;SDS011;62678;52.130;5.584;2023-03-14T11:35:03;16.13;;;2.70;;
11962;SDS011;62678;52.130;5.584;2023-03-14T11:37:35;15.10;;;2.45;;
11962;SDS011;62678;52.130;5.584;2023-03-14T11:40:12;11.18;;;2.60;;
11962;SDS011;62678;52.130;5.584;2023-03-14T11:42:43;19.40;;;2.63;;
11962;SDS011;62678;52.130;5.584;2023-03-14T11:45:13;15.60;;;2.50;;
11962;SDS011;62678;52.130;5.584;2023-03-14T11:47:44;17.83;;;3.05;;
11962;SDS011;62678;52.130;5.584;2023-03-14T11:50:16;14.80;;;3.03;;
11962;SDS011;62678;52.130;5.584;2023-03-14T11:52:49;17.30;;;3.67;;
11962;SDS011;62678;52.130;5.584;2023-03-14T11:55:24;13.23;;;2.15;;
11962;SDS011;62678;52.130;5.584;2023-03-14T11:57:55;17.02;;;2.95;;
11962;SDS011;62678;52.130;5.584;2023-03-14T12:00:26;18.17;;;3.00;;
11962;SDS011;62678;52.130;5.584;2023-03-14T12:02:55;12.98;;;2.28;;
11962;SDS011;62678;52.130;5.584;2023-03-14T12:05:36;14.73;;;2.15;;
11962;SDS011;62678;52.130;5.584;2023-03-14T12:11:06;15.27;;;2.20;;
11962;SDS011;62678;52.130;5.584;2023-03-14T12:13:39;7.70;;;2.10;;
11962;SDS011;62678;52.130;5.584;2023-03-14T12:16:17;12.55;;;2.13;;
11962;SDS011;62678;52.130;5.584;2023-03-14T12:18:51;11.65;;;1.70;;
11962;SDS011;62678;52.130;5.584;2023-03-14T12:21:19;14.48;;;2.10;;
11962;SDS011;62678;52.130;5.584;2023-03-14T12:23:48;10.35;;;2.30;;
11962;SDS011;62678;52.130;5.584;2023-03-14T12:26:19;15.77;;;2.45;;
11962;SDS011;62678;52.130;5.584;2023-03-14T12:28:50;13.23;;;2.35;;
11962;SDS011;62678;52.130;5.584;2023-03-14T12:31:38;13.25;;;2.55;;
11962;SDS011;62678;52.130;5.584;2023-03-14T12:37:20;9.40;;;1.95;;
11962;SDS011;62678;52.130;5.584;2023-03-14T12:40:02;10.00;;;1.98;;
11962;SDS011;62678;52.130;5.584;2023-03-14T12:42:45;8.75;;;1.67;;
11962;SDS011;62678;52.130;5.584;2023-03-14T12:45:23;11.60;;;1.83;;
11962;SDS011;62678;52.130;5.584;2023-03-14T12:47:54;10.77;;;1.85;;
11962;SDS011;62678;52.130;5.584;2023-03-14T12:50:43;14.05;;;2.30;;
11962;SDS011;62678;52.130;5.584;2023-03-14T12:53:19;10.70;;;2.55;;
11962;SDS011;62678;52.130;5.584;2023-03-14T12:56:01;7.05;;;1.60;;
11962;SDS011;62678;52.130;5.584;2023-03-14T12:58:36;10.57;;;2.40;;
11962;SDS011;62678;52.130;5.584;2023-03-14T13:01:14;9.40;;;1.67;;
11962;SDS011;62678;52.130;5.584;2023-03-14T13:03:43;13.68;;;1.95;;
11962;SDS011;62678;52.130;5.584;2023-03-14T13:06:13;7.22;;;1.42;;
11962;SDS011;62678;52.130;5.584;2023-03-14T13:09:34;11.27;;;1.60;;
11962;SDS011;62678;52.130;5.584;2023-03-14T13:12:16;10.05;;;1.85;;
11962;SDS011;62678;52.130;5.584;2023-03-14T13:14:47;8.13;;;1.20;;
11962;SDS011;62678;52.130;5.584;2023-03-14T13:17:19;7.38;;;1.83;;
11962;SDS011;62678;52.130;5.584;2023-03-14T13:19:52;6.63;;;1.55;;
11962;SDS011;62678;52.130;5.584;2023-03-14T13:22:23;5.55;;;1.30;;
11962;SDS011;62678;52.130;5.584;2023-03-14T13:24:58;7.80;;;2.03;;
11962;SDS011;62678;52.130;5.584;2023-03-14T13:27:27;7.10;;;1.48;;
11962;SDS011;62678;52.130;5.584;2023-03-14T13:29:59;8.32;;;1.88;;
11962;SDS011;62678;52.130;5.584;2023-03-14T13:32:40;6.45;;;1.40;;
11962;SDS011;62678;52.130;5.584;2023-03-14T13:35:14;9.27;;;1.67;;
11962;SDS011;62678;52.130;5.584;2023-03-14T13:37:42;6.32;;;1.73;;
11962;SDS011;62678;52.130;5.584;2023-03-14T13:40:18;7.97;;;1.60;;
11962;SDS011;62678;52.130;5.584;2023-03-14T13:42:47;6.05;;;1.70;;
11962;SDS011;62678;52.130;5.584;2023-03-14T13:45:15;9.27;;;2.33;;
11962;SDS011;62678;52.130;5.584;2023-03-14T13:47:42;6.65;;;1.40;;
11962;SDS011;62678;52.130;5.584;2023-03-14T13:50:14;7.35;;;1.50;;
11962;SDS011;62678;52.130;5.584;2023-03-14T13:52:43;12.23;;;1.70;;
11962;SDS011;62678;52.130;5.584;2023-03-14T13:55:14;10.50;;;2.13;;
11962;SDS011;62678;52.130;5.584;2023-03-14T13:57:42;10.57;;;2.28;;
11962;SDS011;62678;52.130;5.584;2023-03-14T14:00:19;8.00;;;1.73;;
11962;SDS011;62678;52.130;5.584;2023-03-14T14:02:51;9.90;;;1.60;;
11962;SDS011;62678;52.130;5.584;2023-03-14T14:05:19;8.27;;;1.35;;
11962;SDS011;62678;52.130;5.584;2023-03-14T14:07:47;7.20;;;1.23;;
11962;SDS011;62678;52.130;5.584;2023-03-14T14:10:16;5.38;;;1.45;;
11962;SDS011;62678;52.130;5.584;2023-03-14T14:12:44;5.43;;;1.20;;
11962;SDS011;62678;52.130;5.584;2023-03-14T14:15:17;7.10;;;1.20;;
11962;SDS011;62678;52.130;5.584;2023-03-14T14:17:48;10.93;;;1.90;;
11962;SDS011;62678;52.130;5.584;2023-03-14T14:20:21;11.10;;;1.92;;
11962;SDS011;62678;52.130;5.584;2023-03-14T14:22:56;8.05;;;1.40;;
11962;SDS011;62678;52.130;5.584;2023-03-14T14:25:24;5.22;;;1.00;;
11962;SDS011;62678;52.130;5.584;2023-03-14T14:27:51;7.80;;;1.50;;
11962;SDS011;62678;52.130;5.584;2023-03-14T14:30:27;7.00;;;1.40;;
11962;SDS011;62678;52.130;5.584;2023-03-14T14:33:09;6.40;;;1.23;;
11962;SDS011;62678;52.130;5.584;2023-03-14T14:35:38;4.13;;;1.10;;
11962;SDS011;62678;52.130;5.584;2023-03-14T14:38:10;6.40;;;1.40;;
11962;SDS011;62678;52.130;5.584;2023-03-14T14:40:43;6.30;;;1.40;;
11962;SDS011;62678;52.130;5.584;2023-03-14T14:43:12;6.80;;;1.50;;
11962;SDS011;62678;52.130;5.584;2023-03-14T14:45:44;7.75;;;1.83;;
11962;SDS011;62678;52.130;5.584;2023-03-14T14:48:13;11.57;;;2.00;;
11962;SDS011;62678;52.130;5.584;2023-03-14T14:50:49;8.98;;;1.90;;
11962;SDS011;62678;52.130;5.584;2023-03-14T14:53:23;10.32;;;1.60;;
11962;SDS011;62678;52.130;5.584;2023-03-14T14:55:53;7.88;;;2.20;;
11962;SDS011;62678;52.130;5.584;2023-03-14T14:58:23;9.60;;;1.73;;